createdAt,value
2022-11-22T00:02:15.986Z,7.22
2022-11-22T00:04:43.602Z,5.63
2022-11-22T00:07:11.010Z,10.02
2022-11-22T00:09:38.346Z,7.82
2022-11-22T00:12:05.811Z,3.40
2022-11-22T00:14:33.225Z,7.65
2022-11-22T00:17:00.660Z,9.65
2022-11-22T00:19:28.391Z,3.30
2022-11-22T00:21:56.087Z,6.25
2022-11-22T00:24:23.515Z,3.30
2022-11-22T00:26:50.889Z,6.03
2022-11-22T00:29:18.403Z,3.05
2022-11-22T00:31:45.754Z,7.22
2022-11-22T00:34:13.135Z,5.78
2022-11-22T00:36:40.454Z,7.45
2022-11-22T00:39:07.846Z,4.28
2022-11-22T00:41:37.050Z,5.60
2022-11-22T00:44:04.586Z,8.65
2022-11-22T00:46:31.975Z,6.13
2022-11-22T00:48:59.335Z,1.60
2022-11-22T00:51:26.774Z,7.90
2022-11-22T00:53:54.154Z,3.38
2022-11-22T00:56:21.505Z,4.13
2022-11-22T00:58:48.869Z,3.00
2022-11-22T01:01:16.286Z,2.63
2022-11-22T01:03:43.737Z,2.92
2022-11-22T01:06:11.147Z,4.40
2022-11-22T01:08:38.602Z,0.93
2022-11-22T01:11:05.985Z,6.88
2022-11-22T01:13:33.922Z,5.07
2022-11-22T01:16:03.195Z,2.42
2022-11-22T01:18:31.073Z,8.02
2022-11-22T01:20:58.716Z,3.50
2022-11-22T01:23:26.681Z,5.05
2022-11-22T01:25:54.337Z,9.95
2022-11-22T01:28:21.803Z,4.68
2022-11-22T01:30:53.239Z,5.85
2022-11-22T01:33:21.190Z,2.75
2022-11-22T01:35:48.689Z,4.78
2022-11-22T01:38:16.122Z,4.93
2022-11-22T01:45:30.326Z,10.60
2022-11-22T01:48:12.972Z,3.20
2022-11-22T01:50:44.001Z,4.95
2022-11-22T01:53:15.742Z,5.15
2022-11-22T01:55:43.670Z,5.43
2022-11-22T01:58:15.352Z,6.63
2022-11-22T02:00:44.171Z,4.18
2022-11-22T02:03:15.267Z,4.05
2022-11-22T02:05:42.757Z,1.67
2022-11-22T02:08:25.488Z,3.38
2022-11-22T02:10:55.406Z,6.20
2022-11-22T02:13:23.719Z,1.65
2022-11-22T02:15:52.498Z,4.15
2022-11-22T02:18:20.196Z,2.60
2022-11-22T02:20:47.780Z,4.13
2022-11-22T02:23:45.744Z,9.52
2022-11-22T02:26:14.453Z,1.83
2022-11-22T02:28:41.877Z,6.68
2022-11-22T02:31:09.321Z,3.97
2022-11-22T02:33:36.663Z,6.15
2022-11-22T02:36:04.205Z,3.92
2022-11-22T02:38:34.961Z,5.03
2022-11-22T02:41:10.548Z,3.40
2022-11-22T02:43:40.469Z,2.17
2022-11-22T02:46:13.690Z,4.07
2022-11-22T02:48:45.121Z,2.97
2022-11-22T02:51:17.040Z,3.70
2022-11-22T02:53:44.732Z,4.20
2022-11-22T02:56:12.043Z,4.60
2022-11-22T02:58:39.392Z,2.22
2022-11-22T03:01:06.803Z,2.63
2022-11-22T03:03:34.210Z,4.20
2022-11-22T03:06:02.588Z,4.88
2022-11-22T03:08:30.631Z,10.57
2022-11-22T03:11:01.067Z,4.68
2022-11-22T03:13:28.447Z,4.75
2022-11-22T03:15:55.879Z,4.53
2022-11-22T03:18:23.305Z,4.50
2022-11-22T03:20:50.676Z,2.03
2022-11-22T03:23:18.085Z,5.88
2022-11-22T03:25:45.422Z,2.30
2022-11-22T03:28:13.222Z,14.90
2022-11-22T03:30:41.696Z,4.03
2022-11-22T03:33:09.206Z,6.40
2022-11-22T03:35:36.602Z,5.28
2022-11-22T03:38:05.395Z,5.65
2022-11-22T03:40:33.566Z,7.32
2022-11-22T03:43:02.361Z,5.28
2022-11-22T03:45:30.049Z,7.90
2022-11-22T03:47:57.628Z,3.67
2022-11-22T03:50:25.725Z,2.92
2022-11-22T03:52:53.129Z,4.85
2022-11-22T03:55:20.514Z,1.67
2022-11-22T03:57:47.947Z,4.50
2022-11-22T04:00:15.764Z,3.90
2022-11-22T04:02:43.134Z,5.95
2022-11-22T04:05:10.623Z,5.32
2022-11-22T04:07:38.136Z,4.18
2022-11-22T04:10:06.483Z,5.93
2022-11-22T04:12:34.046Z,2.90
2022-11-22T04:15:08.104Z,6.03
2022-11-22T04:17:46.207Z,5.90
2022-11-22T04:20:34.495Z,8.93
2022-11-22T04:23:09.732Z,7.20
2022-11-22T04:25:40.317Z,2.53
2022-11-22T04:28:09.418Z,1.08
2022-11-22T04:31:09.468Z,2.17
2022-11-22T04:33:36.898Z,3.42
2022-11-22T04:36:06.685Z,2.60
2022-11-22T04:38:37.670Z,7.78
2022-11-22T04:41:05.042Z,2.53
2022-11-22T04:43:51.090Z,3.42
2022-11-22T04:46:18.386Z,3.78
2022-11-22T04:48:45.698Z,7.88
2022-11-22T04:51:33.457Z,4.40
2022-11-22T04:54:00.876Z,4.50
2022-11-22T04:56:28.277Z,2.88
2022-11-22T04:58:55.646Z,4.85
2022-11-22T05:01:23.058Z,5.57
2022-11-22T05:03:50.443Z,4.85
2022-11-22T05:06:17.817Z,3.20
2022-11-22T05:08:45.292Z,9.60
2022-11-22T05:11:12.645Z,7.70
2022-11-22T05:13:42.315Z,6.68
2022-11-22T05:16:12.501Z,7.57
2022-11-22T05:18:40.011Z,4.78
2022-11-22T05:21:09.653Z,6.10
2022-11-22T05:23:55.395Z,4.28
2022-11-22T05:26:24.530Z,5.25
2022-11-22T05:28:52.268Z,4.25
2022-11-22T05:31:25.481Z,5.40
2022-11-22T05:33:54.710Z,3.25
2022-11-22T05:36:22.964Z,8.07
2022-11-22T05:38:50.686Z,2.15
2022-11-22T05:41:18.983Z,5.88
2022-11-22T05:43:46.449Z,4.47
2022-11-22T05:46:21.032Z,1.55
2022-11-22T05:48:54.968Z,3.20
2022-11-22T05:51:32.503Z,7.45
2022-11-22T05:54:01.256Z,3.97
2022-11-22T05:56:28.736Z,6.20
2022-11-22T05:58:56.103Z,5.30
2022-11-22T06:01:24.442Z,3.60
2022-11-22T06:03:52.266Z,2.53
2022-11-22T06:06:19.652Z,2.25
2022-11-22T06:08:48.371Z,4.22
2022-11-22T06:11:24.612Z,1.30
2022-11-22T06:13:54.565Z,5.03
2022-11-22T06:16:22.379Z,1.85
2022-11-22T06:18:50.318Z,4.40
2022-11-22T06:21:20.387Z,2.85
2022-11-22T06:23:47.824Z,1.75
2022-11-22T06:26:17.729Z,9.38
2022-11-22T06:28:46.419Z,4.55
2022-11-22T06:31:16.587Z,4.80
2022-11-22T06:33:44.496Z,4.43
2022-11-22T06:36:14.368Z,3.95
2022-11-22T06:38:43.461Z,5.38
2022-11-22T06:41:23.511Z,6.07
2022-11-22T06:43:52.586Z,6.78
2022-11-22T06:46:24.552Z,7.35
2022-11-22T06:48:52.343Z,1.63
2022-11-22T06:51:25.737Z,2.15
2022-11-22T06:53:56.999Z,3.42
2022-11-22T06:56:33.343Z,8.32
2022-11-22T06:59:06.602Z,3.53
2022-11-22T07:01:35.504Z,6.30
2022-11-22T07:04:04.279Z,7.72
2022-11-22T07:06:34.593Z,4.90
2022-11-22T07:09:03.575Z,7.47
2022-11-22T07:11:31.694Z,4.57
2022-11-22T07:14:07.082Z,3.67
2022-11-22T07:16:36.771Z,2.60
2022-11-22T07:19:04.964Z,3.53
2022-11-22T07:21:32.730Z,6.25
2022-11-22T07:24:00.234Z,5.32
2022-11-22T07:26:28.646Z,4.32
2022-11-22T07:28:56.598Z,5.72
2022-11-22T07:31:24.029Z,5.95
2022-11-22T07:33:51.417Z,2.33
2022-11-22T07:36:20.862Z,4.43
2022-11-22T07:38:49.447Z,3.85
2022-11-22T07:41:18.268Z,4.53
2022-11-22T07:43:46.994Z,13.30
2022-11-22T07:46:31.260Z,2.90
2022-11-22T07:49:01.949Z,4.95
2022-11-22T07:51:30.040Z,4.32
2022-11-22T07:53:57.970Z,9.00
2022-11-22T08:05:29.967Z,5.25
2022-11-22T08:07:57.619Z,7.13
2022-11-22T08:10:25.006Z,6.40
2022-11-22T08:12:52.398Z,5.63
2022-11-22T08:15:19.804Z,5.60
2022-11-22T08:17:47.199Z,5.15
2022-11-22T08:20:14.909Z,7.38
2022-11-22T08:22:42.673Z,5.65
2022-11-22T08:25:12.717Z,4.38
2022-11-22T08:27:41.351Z,6.55
2022-11-22T08:30:10.443Z,4.80
2022-11-22T08:32:38.165Z,12.25
2022-11-22T08:35:06.030Z,4.68
2022-11-22T08:37:33.500Z,9.45
2022-11-22T08:40:00.940Z,5.47
2022-11-22T08:42:28.317Z,18.17
2022-11-22T08:44:55.815Z,5.47
2022-11-22T08:47:23.166Z,24.80
2022-11-22T08:49:50.772Z,10.23
2022-11-22T08:52:18.173Z,7.20
2022-11-22T08:54:45.554Z,9.60
2022-11-22T08:57:12.931Z,7.20
2022-11-22T08:59:40.410Z,6.18
2022-11-22T09:02:08.746Z,12.07
2022-11-22T09:04:36.188Z,7.47
2022-11-22T09:09:50.987Z,10.38
2022-11-22T09:12:19.158Z,6.38
2022-11-22T09:14:46.547Z,7.97
2022-11-22T09:17:17.806Z,3.63
2022-11-22T09:19:45.786Z,8.88
2022-11-22T09:22:13.190Z,8.02
2022-11-22T09:24:40.591Z,5.60
2022-11-22T09:27:08.050Z,8.85
2022-11-22T09:29:35.570Z,4.55
2022-11-22T09:32:03.527Z,12.52
2022-11-22T09:34:30.950Z,7.53
2022-11-22T09:36:58.371Z,9.43
2022-11-22T09:39:25.754Z,5.85
2022-11-22T09:42:02.511Z,5.47
2022-11-22T09:44:29.864Z,3.60
2022-11-22T09:47:20.651Z,6.30
2022-11-22T09:50:09.733Z,9.80
2022-11-22T09:52:54.974Z,4.30
2022-11-22T09:55:29.162Z,7.60
2022-11-22T09:58:24.160Z,3.45
2022-11-22T10:00:53.585Z,14.05
2022-11-22T10:04:01.357Z,7.20
2022-11-22T10:06:48.854Z,7.95
2022-11-22T10:09:36.979Z,8.40
2022-11-22T10:12:11.892Z,6.10
2022-11-22T10:15:05.038Z,4.07
2022-11-22T10:17:41.272Z,3.60
2022-11-22T10:20:24.913Z,8.13
2022-11-22T10:22:52.864Z,5.20
2022-11-22T10:25:24.230Z,4.18
2022-11-22T10:28:00.887Z,5.53
2022-11-22T10:30:35.871Z,7.15
2022-11-22T10:33:27.017Z,10.88
2022-11-22T10:36:04.836Z,8.48
2022-11-22T10:39:07.394Z,4.53
2022-11-22T10:41:51.888Z,5.97
2022-11-22T10:44:37.385Z,5.07
2022-11-22T10:47:34.404Z,5.95
2022-11-22T10:50:11.201Z,4.70
2022-11-22T10:52:46.850Z,7.03
2022-11-22T10:55:46.636Z,5.47
2022-11-22T10:58:22.883Z,6.35
2022-11-22T11:01:00.732Z,5.10
2022-11-22T11:03:30.428Z,8.55
2022-11-22T11:06:26.645Z,6.20
2022-11-22T11:10:03.014Z,9.20
2022-11-22T11:11:47.135Z,5.00
2022-11-22T11:14:20.031Z,8.95
2022-11-22T11:16:48.063Z,12.23
2022-11-22T11:19:20.779Z,5.95
2022-11-22T11:21:57.572Z,5.32
2022-11-22T11:24:28.105Z,6.35
2022-11-22T11:26:58.389Z,6.68
2022-11-22T11:30:01.507Z,9.67
2022-11-22T11:32:28.997Z,5.60
2022-11-22T11:35:03.895Z,6.28
2022-11-22T11:37:37.080Z,8.00
2022-11-22T11:40:28.367Z,5.72
2022-11-22T11:45:41.888Z,6.90
2022-11-22T11:48:43.628Z,5.13
2022-11-22T11:51:11.023Z,4.55
2022-11-22T11:53:39.951Z,8.77
2022-11-22T11:56:29.161Z,6.70
2022-11-22T11:58:59.069Z,11.02
2022-11-22T12:01:27.056Z,6.13
2022-11-22T12:04:01.323Z,3.03
2022-11-22T12:06:30.527Z,5.68
2022-11-22T12:09:07.942Z,7.47
2022-11-22T12:11:49.234Z,2.30
2022-11-22T12:16:53.077Z,10.23
2022-11-22T12:19:39.149Z,3.13
2022-11-22T12:22:54.713Z,5.50
2022-11-22T12:25:33.547Z,3.45
2022-11-22T12:28:10.407Z,4.53
2022-11-22T12:30:41.115Z,9.63
2022-11-22T12:33:13.651Z,4.35
2022-11-22T12:35:45.870Z,2.95
2022-11-22T12:38:28.801Z,3.10
2022-11-22T12:41:02.482Z,3.95
2022-11-22T12:43:43.734Z,4.72
2022-11-22T12:46:31.395Z,5.22
2022-11-22T12:49:07.694Z,5.78
2022-11-22T12:51:50.099Z,6.05
2022-11-22T12:54:32.589Z,5.30
2022-11-22T12:57:05.433Z,3.80
2022-11-22T12:59:32.794Z,3.42
2022-11-22T13:02:22.171Z,4.32
2022-11-22T13:05:16.788Z,4.72
2022-11-22T13:07:56.082Z,3.95
2022-11-22T13:10:44.649Z,1.58
2022-11-22T13:13:22.953Z,1.20
2022-11-22T13:15:53.062Z,2.47
2022-11-22T13:18:24.882Z,8.37
2022-11-22T13:21:17.758Z,3.08
2022-11-22T13:23:58.989Z,9.82
2022-11-22T13:27:03.678Z,5.35
2022-11-22T13:29:34.531Z,5.53
2022-11-22T13:32:03.635Z,3.65
2022-11-22T13:34:32.323Z,6.82
2022-11-22T13:37:15.637Z,9.45
2022-11-22T13:39:47.039Z,4.82
2022-11-22T13:42:19.706Z,4.90
2022-11-22T13:44:56.259Z,3.72
2022-11-22T13:47:23.762Z,5.63
2022-11-22T13:49:53.927Z,4.28
2022-11-22T13:52:21.303Z,3.60
2022-11-22T13:54:56.333Z,4.35
2022-11-22T13:57:42.676Z,6.18
2022-11-22T14:00:13.921Z,6.68
2022-11-22T14:02:44.038Z,9.30
2022-11-22T14:05:21.973Z,12.45
2022-11-22T14:07:51.753Z,4.10
2022-11-22T14:10:52.009Z,5.30
2022-11-22T14:13:48.227Z,2.67
2022-11-22T14:17:05.111Z,5.78
2022-11-22T14:20:16.803Z,7.25
2022-11-22T14:23:01.378Z,5.80
2022-11-22T14:25:41.320Z,5.65
2022-11-22T14:28:32.395Z,3.38
2022-11-22T14:31:00.121Z,3.97
2022-11-22T14:33:31.535Z,5.18
2022-11-22T14:36:07.778Z,3.08
2022-11-22T14:38:38.898Z,6.88
2022-11-22T14:44:03.545Z,5.85
2022-11-22T14:46:53.305Z,6.13
2022-11-22T14:49:43.225Z,7.38
2022-11-22T14:52:22.738Z,6.75
2022-11-22T14:54:56.254Z,3.95
2022-11-22T14:57:26.632Z,5.18
2022-11-22T15:00:15.395Z,3.28
2022-11-22T15:02:57.380Z,3.00
2022-11-22T15:09:11.859Z,3.67
2022-11-22T15:09:23.397Z,1.83
2022-11-22T15:11:59.963Z,3.33
2022-11-22T15:14:36.381Z,6.30
2022-11-22T15:57:37.581Z,4.25
2022-11-22T16:00:21.533Z,3.58
2022-11-22T16:02:51.592Z,3.28
2022-11-22T16:06:06.743Z,3.53
2022-11-22T16:08:21.600Z,4.57
2022-11-22T16:10:51.016Z,3.45
2022-11-22T16:13:21.176Z,3.83
2022-11-22T16:16:05.068Z,4.05
2022-11-22T16:18:32.887Z,4.97
2022-11-22T16:21:00.226Z,5.50
2022-11-22T16:23:29.307Z,5.47
2022-11-22T16:26:29.319Z,4.03
2022-11-22T16:29:22.825Z,3.88
2022-11-22T16:31:50.223Z,5.53
2022-11-22T16:34:17.823Z,6.68
2022-11-22T16:36:45.203Z,9.10
2022-11-22T16:39:12.585Z,8.40
2022-11-22T16:41:39.960Z,9.80
2022-11-22T16:44:12.853Z,7.45
2022-11-22T16:46:43.699Z,6.50
2022-11-22T16:49:23.600Z,9.45
2022-11-22T16:51:51.552Z,5.72
2022-11-22T16:54:20.842Z,6.45
2022-11-22T16:56:48.334Z,3.47
2022-11-22T16:59:15.887Z,5.45
2022-11-22T17:01:44.278Z,6.85
2022-11-22T17:04:23.808Z,3.50
2022-11-22T17:06:51.786Z,2.85
2022-11-22T17:09:19.895Z,12.10
2022-11-22T17:11:47.457Z,6.57
2022-11-22T17:14:16.894Z,9.88
2022-11-22T17:16:45.912Z,6.97
2022-11-22T17:19:37.647Z,7.28
2022-11-22T17:22:01.240Z,11.25
2022-11-22T17:24:29.210Z,8.65
2022-11-22T17:26:57.312Z,7.63
2022-11-22T17:32:13.729Z,7.90
2022-11-22T17:34:41.146Z,6.35
2022-11-22T17:37:12.596Z,9.18
2022-11-22T17:39:40.682Z,8.60
2022-11-22T17:42:08.294Z,10.25
2022-11-22T17:44:35.725Z,9.88
2022-11-22T17:47:03.136Z,11.68
2022-11-22T17:49:30.806Z,12.88
2022-11-22T17:51:58.471Z,7.00
2022-11-22T17:54:25.922Z,12.25
2022-11-22T17:56:53.309Z,6.45
2022-11-22T17:59:20.710Z,8.15
2022-11-22T18:01:48.066Z,6.25
2022-11-22T18:04:17.425Z,8.48
2022-11-22T18:06:44.844Z,7.45
2022-11-22T18:09:12.320Z,9.23
2022-11-22T18:11:39.691Z,11.02
2022-11-22T18:14:07.197Z,8.35
2022-11-22T18:16:34.654Z,7.05
2022-11-22T18:19:02.364Z,7.35
2022-11-22T18:21:34.415Z,11.88
2022-11-22T18:24:02.173Z,12.68
2022-11-22T18:26:45.212Z,19.45
2022-11-22T18:29:43.550Z,9.20
2022-11-22T18:32:01.830Z,9.35
2022-11-22T18:34:30.322Z,10.75
2022-11-22T18:37:01.920Z,11.75
2022-11-22T18:39:32.608Z,12.55
2022-11-22T18:42:00.225Z,11.63
2022-11-22T18:44:27.853Z,17.38
2022-11-22T18:46:55.359Z,13.95
2022-11-22T18:49:23.315Z,11.73
2022-11-22T18:51:50.743Z,10.23
2022-11-22T18:54:18.637Z,11.60
2022-11-22T18:56:45.979Z,10.88
2022-11-22T18:59:13.841Z,10.52
2022-11-22T19:01:41.430Z,11.80
2022-11-22T19:04:13.660Z,15.63
2022-11-22T19:06:41.969Z,9.35
2022-11-22T19:09:09.919Z,9.55
2022-11-22T19:11:37.580Z,14.38
2022-11-22T19:14:05.231Z,16.45
2022-11-22T19:16:32.909Z,12.38
2022-11-22T19:19:00.441Z,15.13
2022-11-22T19:21:29.131Z,25.30
2022-11-22T19:23:57.059Z,15.45
2022-11-22T19:26:26.438Z,14.02
2022-11-22T19:28:56.161Z,14.38
2022-11-22T19:31:27.850Z,10.95
2022-11-22T19:33:55.498Z,16.65
2022-11-22T19:40:58.523Z,14.18
2022-11-22T19:43:25.937Z,17.80
2022-11-22T19:45:53.324Z,9.77
2022-11-22T19:48:20.731Z,11.30
2022-11-22T19:50:48.207Z,19.65
2022-11-22T19:53:15.602Z,13.32
2022-11-22T19:55:45.574Z,16.02
2022-11-22T19:58:13.194Z,15.15
2022-11-22T20:00:41.526Z,22.90
2022-11-22T20:03:14.808Z,16.00
2022-11-22T20:05:42.239Z,14.23
2022-11-22T20:08:10.198Z,18.55
2022-11-22T20:10:39.916Z,19.73
2022-11-22T20:13:10.610Z,16.02
2022-11-22T20:15:39.454Z,15.05
2022-11-22T20:18:06.931Z,17.33
2022-11-22T20:20:34.396Z,16.30
2022-11-22T20:23:01.756Z,15.55
2022-11-22T20:25:29.211Z,13.32
2022-11-22T20:27:56.653Z,16.83
2022-11-22T20:30:24.050Z,16.92
2022-11-22T20:32:52.725Z,18.45
2022-11-22T20:35:20.084Z,16.83
2022-11-22T20:37:47.483Z,23.92
2022-11-22T20:40:16.329Z,18.58
2022-11-22T20:42:43.736Z,24.85
2022-11-22T20:45:11.403Z,20.05
2022-11-22T20:47:39.062Z,19.45
2022-11-22T20:50:07.091Z,17.52
2022-11-22T20:52:34.493Z,19.60
2022-11-22T20:55:05.082Z,17.17
2022-11-22T20:57:33.013Z,12.43
2022-11-22T21:00:00.585Z,20.30
2022-11-22T21:02:28.180Z,16.23
2022-11-22T21:04:55.596Z,15.43
2022-11-22T21:07:23.316Z,17.27
2022-11-22T21:09:50.675Z,18.38
2022-11-22T21:12:19.208Z,17.92
2022-11-22T21:14:48.431Z,22.33
2022-11-22T21:17:39.639Z,20.20
2022-11-22T21:20:05.719Z,23.23
2022-11-22T21:22:33.098Z,18.15
2022-11-22T21:25:01.027Z,21.70
2022-11-22T21:27:28.584Z,17.05
2022-11-22T21:29:56.049Z,18.27
2022-11-22T21:32:23.578Z,22.08
2022-11-22T21:34:50.973Z,20.33
2022-11-22T21:37:18.570Z,21.05
2022-11-22T21:39:45.932Z,17.73
2022-11-22T21:42:13.301Z,14.25
2022-11-22T21:44:40.734Z,20.30
2022-11-22T21:47:08.115Z,23.75
2022-11-22T21:49:35.531Z,22.35
2022-11-22T21:52:03.008Z,20.50
2022-11-22T21:54:30.706Z,19.90
2022-11-22T21:57:02.570Z,21.65
2022-11-22T21:59:30.692Z,18.75
2022-11-22T22:01:58.339Z,18.35
2022-11-22T22:04:25.900Z,20.50
2022-11-22T22:06:53.344Z,15.75
2022-11-22T22:09:20.750Z,15.93
2022-11-22T22:11:48.123Z,19.25
2022-11-22T22:14:15.637Z,17.05
2022-11-22T22:16:43.039Z,20.60
2022-11-22T22:19:11.150Z,19.95
2022-11-22T22:21:38.621Z,15.75
2022-11-22T22:24:06.387Z,21.98
2022-11-22T22:26:33.758Z,20.10
2022-11-22T22:29:01.161Z,16.73
2022-11-22T22:31:28.525Z,19.88
2022-11-22T22:33:57.383Z,21.65
2022-11-22T22:36:26.573Z,19.52
2022-11-22T22:38:54.662Z,21.50
2022-11-22T22:41:22.236Z,17.05
2022-11-22T22:43:49.943Z,18.08
2022-11-22T22:46:23.053Z,21.77
2022-11-22T22:48:51.870Z,21.70
2022-11-22T22:51:30.619Z,16.85
2022-11-22T22:54:00.665Z,14.48
2022-11-22T22:56:29.876Z,16.23
2022-11-22T22:59:00.664Z,18.77
2022-11-22T23:01:30.346Z,19.83
2022-11-22T23:08:21.135Z,18.17
2022-11-22T23:10:48.496Z,17.58
2022-11-22T23:13:15.890Z,19.88
2022-11-22T23:15:57.931Z,16.83
2022-11-22T23:18:27.148Z,22.00
2022-11-22T23:21:01.881Z,17.15
2022-11-22T23:23:29.757Z,17.63
2022-11-22T23:26:07.122Z,17.50
2022-11-22T23:28:34.615Z,18.73
2022-11-22T23:31:11.119Z,20.52
2022-11-22T23:33:38.895Z,19.38
2022-11-22T23:36:08.660Z,16.73
2022-11-22T23:38:36.725Z,19.45
2022-11-22T23:41:04.685Z,17.48
2022-11-22T23:43:32.657Z,25.52
2022-11-22T23:46:00.046Z,19.05
2022-11-22T23:48:27.888Z,20.48
2022-11-22T23:50:55.627Z,18.23
2022-11-22T23:53:23.039Z,15.55
2022-11-22T23:55:50.388Z,16.30
2022-11-22T23:58:17.768Z,17.67
